Coal Creek, Colorado
Current Conditions -  °F | °C
As of 6:15 PM on Friday 24 Oct 2014 (Local Time) from K1V6 Reporting Station
Clear Clear  
Wind Chill: 72°   Ceiling: Unl
Heat Index: 72°   Visibility: 10mi
Dew Point: 21°   Wind: 3mph
Humidity: 15%   Direction: 100°E
Pressure: 30.16"   Gusts: NA
Location:  38.36°N, 105.15°W
Report Text: K1V6 250015Z AUTO 10003KT 10SM CLR 22/M06 A3016 RMK AO2
Loading
Personal Weather Stations






























Interactive Weather Map
Tropical Storm Tracking
New forecast layout! Learn more

10-Day Weather Forecast

Advertisements
Track Severe Weather on mobile